< < Back
Terminal Aerodrome Forecast


Current Version              Previous Versions:   1  2  3  4  5  6  7  8  9  

Terminal Aerodrome Forecast

134
FTAK31 PAJN 241700
TAFAGS
TAF
PAGS 241726Z 2418/2518 32003KT P6SM OVC050
     FM242000 22004KT P6SM VCSH FEW025 OVC050
     FM250300 VRB05KT P6SM VCSH BKN025 OVC035
     FM250700 VRB04KT P6SM -SHRA SCT012 OVC025
     FM251700 34005KT 6SM -RA BR SCT010 OVC020
      AMD NOT SKED=

Latest METAR

532
SAUS70 KWBC 242300 RRE
MTRAGS
METAR KAGS 242253Z 26010KT 10SM SCT050 BKN090 32/21 A2988 RMK AO2 SLP116
T03220206


USA.gov is the U.S. government's official web portal to all federal, state and local government web resources and services.